createdAt,value
2023-02-18T00:01:05.542Z,92.45
2023-02-18T00:05:08.074Z,92.93
2023-02-18T00:07:09.073Z,93.38
2023-02-18T00:09:10.535Z,93.67
2023-02-18T00:11:11.807Z,93.88
2023-02-18T00:15:14.836Z,94.16
2023-02-18T00:17:16.502Z,94.48
2023-02-18T00:19:17.979Z,94.65
2023-02-18T00:21:19.709Z,94.69
2023-02-18T00:22:03.530Z,94.72
2023-02-18T00:24:04.765Z,94.77
2023-02-18T00:26:06.913Z,94.84
2023-02-18T00:28:07.728Z,94.83
2023-02-18T00:30:08.857Z,94.91
2023-02-18T00:32:10.011Z,94.87
2023-02-18T00:34:11.124Z,95.01
2023-02-18T00:36:12.267Z,95.06
2023-02-18T00:38:13.635Z,95.15
2023-02-18T00:40:14.946Z,95.21
2023-02-18T00:42:16.570Z,95.22
2023-02-18T00:44:18.274Z,95.26
2023-02-18T00:46:19.243Z,95.38
2023-02-18T00:48:20.678Z,95.43
2023-02-18T00:50:21.956Z,95.41
2023-02-18T00:52:23.693Z,95.38
2023-02-18T00:54:25.305Z,95.37
2023-02-18T00:56:26.419Z,95.45
2023-02-18T00:58:27.729Z,95.39
2023-02-18T01:00:28.746Z,95.12
2023-02-18T01:02:29.705Z,95.13
2023-02-18T01:04:31.381Z,95.04
2023-02-18T01:08:34.169Z,95.06
2023-02-18T01:10:35.947Z,95.04
2023-02-18T01:12:36.898Z,95.04
2023-02-18T01:14:38.057Z,95.01
2023-02-18T01:16:39.274Z,94.94
2023-02-18T01:18:40.781Z,94.9
2023-02-18T01:20:41.972Z,94.82
2023-02-18T01:22:43.305Z,94.95
2023-02-18T01:24:46.282Z,95.03
2023-02-18T01:26:45.395Z,95
2023-02-18T01:28:46.691Z,94.93
2023-02-18T01:30:47.765Z,95.04
2023-02-18T01:32:49.145Z,95.12
2023-02-18T01:34:50.687Z,95.24
2023-02-18T01:36:52.261Z,95.25
2023-02-18T01:40:55.153Z,95.22
2023-02-18T01:42:56.594Z,95.14
2023-02-18T01:44:57.753Z,95.14
2023-02-18T01:46:59.104Z,95.09
2023-02-18T01:51:02.248Z,94.97
2023-02-18T01:53:03.592Z,94.97
2023-02-18T01:55:04.982Z,95.04
2023-02-18T01:57:06.855Z,95.12
2023-02-18T01:59:08.372Z,95.28
2023-02-18T02:01:09.860Z,95.16
2023-02-18T02:03:11.188Z,95.16
2023-02-18T02:05:12.966Z,95.23
2023-02-18T02:07:14.178Z,95.3
2023-02-18T02:09:15.514Z,95.36
2023-02-18T02:11:16.399Z,95.42
2023-02-18T02:13:18.043Z,95.37
2023-02-18T02:15:19.208Z,95.19
2023-02-18T02:17:20.566Z,95.17
2023-02-18T02:19:22.448Z,95.17
2023-02-18T02:23:25.438Z,95.31
2023-02-18T02:25:26.952Z,95.3
2023-02-18T02:27:28.790Z,95.35
2023-02-18T02:29:29.795Z,95.2
2023-02-18T02:33:32.179Z,95.14
2023-02-18T02:35:33.476Z,95
2023-02-18T02:37:35.312Z,94.85
2023-02-18T02:39:36.616Z,94.99
2023-02-18T02:41:37.588Z,95.13
2023-02-18T02:43:38.955Z,95.26
2023-02-18T02:45:40.440Z,95.34
2023-02-18T02:47:41.816Z,95.5
2023-02-18T02:49:43.113Z,95.58
2023-02-18T02:51:44.103Z,95.54
2023-02-18T02:53:45.602Z,95.62
2023-02-18T02:55:46.672Z,95.62
2023-02-18T02:57:48.404Z,95.73
2023-02-18T02:59:50.252Z,95.8
2023-02-18T03:01:51.729Z,95.8
2023-02-18T03:03:53.082Z,95.86
2023-02-18T03:05:54.303Z,95.94
2023-02-18T03:07:55.524Z,95.86
2023-02-18T03:09:57.204Z,95.76
2023-02-18T03:11:58.144Z,95.67
2023-02-18T03:13:59.809Z,95.73
2023-02-18T03:16:01.366Z,95.71
2023-02-18T03:18:02.324Z,95.64
2023-02-18T03:20:03.773Z,95.59
2023-02-18T03:22:05.526Z,95.46
2023-02-18T03:24:06.620Z,95.53
2023-02-18T03:26:08.441Z,95.7
2023-02-18T03:28:09.566Z,95.46
2023-02-18T03:32:12.541Z,95.61
2023-02-18T03:34:13.667Z,95.45
2023-02-18T03:36:15.512Z,95.53
2023-02-18T03:38:16.990Z,95.72
2023-02-18T03:40:18.737Z,95.72
2023-02-18T03:42:20.086Z,95.65
2023-02-18T03:44:21.410Z,95.62
2023-02-18T03:46:22.506Z,95.73
2023-02-18T03:48:23.702Z,95.6
2023-02-18T03:50:24.752Z,95.62
2023-02-18T03:52:26.372Z,95.68
2023-02-18T03:54:28.027Z,95.8
2023-02-18T03:56:29.475Z,95.89
2023-02-18T03:58:30.974Z,95.78
2023-02-18T04:00:32.751Z,95.79
2023-02-18T04:02:34.397Z,95.87
2023-02-18T04:04:35.555Z,95.71
2023-02-18T04:06:37.190Z,95.84
2023-02-18T04:08:38.171Z,95.82
2023-02-18T04:10:39.185Z,95.85
2023-02-18T04:14:41.830Z,95.96
2023-02-18T04:16:43.184Z,95.83
2023-02-18T04:18:44.258Z,95.82
2023-02-18T04:20:45.921Z,95.68
2023-02-18T04:22:47.613Z,95.44
2023-02-18T04:24:48.665Z,95.41
2023-02-18T04:26:49.927Z,95.1
2023-02-18T04:28:51.453Z,94.99
2023-02-18T04:30:52.587Z,94.96
2023-02-18T04:32:54.167Z,94.96
2023-02-18T04:34:55.533Z,94.79
2023-02-18T04:36:56.668Z,94.62
2023-02-18T04:38:58.297Z,94.83
2023-02-18T04:40:59.377Z,94.62
2023-02-18T04:43:00.502Z,94.29
2023-02-18T04:45:01.642Z,94.51
2023-02-18T04:47:02.840Z,94.49
2023-02-18T04:49:04.300Z,94.61
2023-02-18T04:51:05.358Z,94.67
2023-02-18T04:53:06.529Z,94.82
2023-02-18T04:55:08.256Z,95.1
2023-02-18T04:57:09.592Z,95.03
2023-02-18T04:59:10.894Z,95.1
2023-02-18T05:03:13.820Z,94.65
2023-02-18T05:05:15.384Z,94.74
2023-02-18T05:07:16.623Z,94.53
2023-02-18T05:09:18.193Z,94.36
2023-02-18T05:13:20.296Z,94.54
2023-02-18T05:15:22.071Z,94.55
2023-02-18T05:17:23.626Z,94.55
2023-02-18T05:19:25.285Z,94.33
2023-02-18T05:21:26.757Z,94.41
2023-02-18T05:23:27.965Z,94.54
2023-02-18T05:25:29.416Z,94.35
2023-02-18T05:27:30.834Z,94.15
2023-02-18T05:29:31.905Z,94.2
2023-02-18T05:31:33.609Z,94.1
2023-02-18T05:33:34.754Z,94.08
2023-02-18T05:35:35.997Z,93.89
2023-02-18T05:37:36.897Z,93.88
2023-02-18T05:39:38.066Z,93.93
2023-02-18T05:41:39.668Z,93.83
2023-02-18T05:45:42.427Z,93.24
2023-02-18T05:47:43.460Z,93.28
2023-02-18T05:49:44.594Z,93.14
2023-02-18T05:51:46.309Z,92.69
2023-02-18T05:55:49.203Z,92.28
2023-02-18T05:57:50.318Z,92.22
2023-02-18T05:59:52.183Z,91.98
2023-02-18T06:01:53.433Z,91.84
2023-02-18T06:03:54.510Z,91.61
2023-02-18T06:05:55.758Z,91.32
2023-02-18T06:07:56.905Z,91.32
2023-02-18T06:09:58.258Z,91.39
2023-02-18T06:11:59.197Z,91.63
2023-02-18T06:14:00.383Z,91.74
2023-02-18T06:16:01.953Z,91.76
2023-02-18T06:18:03.669Z,91.56
2023-02-18T06:20:05.457Z,91.37
2023-02-18T06:22:06.541Z,91.53
2023-02-18T06:24:07.742Z,91.67
2023-02-18T06:26:09.794Z,91.57
2023-02-18T06:28:11.098Z,91.3
2023-02-18T06:30:12.185Z,91.57
2023-02-18T06:32:13.973Z,91.2
2023-02-18T06:34:15.091Z,91.31
2023-02-18T06:36:16.473Z,91.27
2023-02-18T06:38:17.505Z,91.42
2023-02-18T06:40:18.599Z,91.48
2023-02-18T06:44:21.823Z,91.27
2023-02-18T06:46:22.970Z,91.1
2023-02-18T06:48:24.290Z,90.94
2023-02-18T06:50:25.876Z,90.84
2023-02-18T06:54:28.218Z,90.52
2023-02-18T06:56:31.017Z,90.57
2023-02-18T06:58:31.460Z,90.54
2023-02-18T07:00:33.424Z,90.39
2023-02-18T07:02:34.958Z,90.63
2023-02-18T07:04:36.677Z,90.65
2023-02-18T07:06:37.868Z,90.48
2023-02-18T07:09:23.232Z,90.85
2023-02-18T07:11:24.296Z,90.94
2023-02-18T07:13:25.366Z,90.68
2023-02-18T07:15:26.939Z,90.84
2023-02-18T07:17:28.243Z,90.7
2023-02-18T07:19:30.108Z,90.45
2023-02-18T07:21:32.015Z,90.44
2023-02-18T07:23:33.709Z,90.49
2023-02-18T07:25:34.865Z,90.19
2023-02-18T07:27:36.563Z,89.66
2023-02-18T07:31:38.883Z,89.72
2023-02-18T07:33:39.849Z,89.45
2023-02-18T07:35:41.391Z,89.6
2023-02-18T07:37:42.678Z,89.1
2023-02-18T07:39:43.888Z,89.34
2023-02-18T07:41:44.805Z,89.44
2023-02-18T07:43:46.177Z,89.45
2023-02-18T07:45:47.938Z,89.61
2023-02-18T07:47:48.918Z,89.5
2023-02-18T07:49:50.196Z,89.43
2023-02-18T07:51:51.793Z,89.36
2023-02-18T07:53:53.411Z,89.45
2023-02-18T07:55:54.956Z,89.42
2023-02-18T07:57:56.683Z,89.5
2023-02-18T07:59:58.342Z,89.15
2023-02-18T08:01:59.715Z,89.38
2023-02-18T08:04:01.460Z,89.04
2023-02-18T08:06:03.212Z,88.75
2023-02-18T08:08:04.381Z,88.5
2023-02-18T08:10:05.661Z,88.8
2023-02-18T08:14:08.664Z,88.53
2023-02-18T08:16:10.645Z,88.55
2023-02-18T08:18:11.239Z,88.57
2023-02-18T08:20:13.062Z,88.6
2023-02-18T08:22:14.419Z,88.31
2023-02-18T08:24:15.695Z,88.38
2023-02-18T08:26:17.243Z,88.72
2023-02-18T08:28:19.061Z,88.54
2023-02-18T08:30:20.079Z,88.28
2023-02-18T08:32:21.565Z,87.96
2023-02-18T08:34:23.329Z,88.25
2023-02-18T08:36:24.947Z,88.56
2023-02-18T08:38:25.905Z,88.35
2023-02-18T08:40:27.602Z,88.32
2023-02-18T08:42:28.978Z,88.31
2023-02-18T08:46:33.464Z,88.14
2023-02-18T08:48:33.372Z,88.05
2023-02-18T08:50:34.712Z,87.98
2023-02-18T08:52:36.158Z,87.85
2023-02-18T08:56:38.678Z,87.38
2023-02-18T08:58:39.967Z,87.24
2023-02-18T09:00:41.107Z,87.12
2023-02-18T09:02:42.578Z,86.5
2023-02-18T09:04:43.653Z,86.36
2023-02-18T09:06:45.080Z,86.45
2023-02-18T09:08:46.053Z,86.22
2023-02-18T09:10:47.024Z,86.18
2023-02-18T09:12:48.931Z,86.41
2023-02-18T09:14:49.975Z,85.89
2023-02-18T09:16:51.230Z,85.1
2023-02-18T09:18:52.852Z,85.32
2023-02-18T09:20:54.200Z,85.24
2023-02-18T09:22:55.737Z,85.4
2023-02-18T09:24:57.490Z,85.07
2023-02-18T09:26:59.193Z,84.53
2023-02-18T09:29:00.173Z,84.35
2023-02-18T09:31:01.958Z,84.72
2023-02-18T09:33:03.140Z,84.16
2023-02-18T09:35:04.238Z,84.08
2023-02-18T09:39:07.465Z,83.85
2023-02-18T09:41:09.277Z,83.94
2023-02-18T09:43:10.759Z,83.94
2023-02-18T09:45:12.207Z,83.52
2023-02-18T09:47:13.973Z,83.78
2023-02-18T09:49:15.110Z,84
2023-02-18T09:51:16.671Z,84.05
2023-02-18T09:53:18.108Z,83.77
2023-02-18T09:55:19.780Z,83.84
2023-02-18T09:57:21.516Z,83.46
2023-02-18T09:59:22.997Z,82.68
2023-02-18T10:01:24.112Z,82.77
2023-02-18T10:03:25.186Z,82.65
2023-02-18T10:05:26.530Z,83.05
2023-02-18T10:07:28.493Z,82.98
2023-02-18T10:11:30.790Z,82.69
2023-02-18T10:13:32.472Z,82.93
2023-02-18T10:17:49.554Z,82.86
2023-02-18T10:22:50.483Z,82.23
2023-02-18T10:27:58.792Z,82.12
2023-02-18T10:30:35.306Z,81.59
2023-02-18T10:31:58.168Z,81.8
2023-02-18T10:33:45.636Z,82.17
2023-02-18T10:37:49.666Z,81.38
2023-02-18T10:39:50.174Z,81.52
2023-02-18T10:42:37.532Z,80.86
2023-02-18T10:43:53.837Z,81.17
2023-02-18T10:47:56.249Z,80.71
2023-02-18T10:49:57.869Z,80.78
2023-02-18T10:56:03.918Z,80.41
2023-02-18T10:59:43.719Z,80.88
2023-02-18T11:02:38.282Z,80.41
2023-02-18T11:04:06.745Z,80.88
2023-02-18T11:06:37.080Z,81.26
2023-02-18T11:12:26.389Z,81.27
2023-02-18T11:16:40.237Z,80.94
2023-02-18T11:20:19.257Z,81.18
2023-02-18T11:22:32.212Z,81.1
2023-02-18T11:26:23.228Z,80.72
2023-02-18T11:28:45.691Z,80.07
2023-02-18T11:32:26.716Z,80.64
2023-02-18T11:34:56.242Z,79.77
2023-02-18T11:38:31.511Z,79.56
2023-02-18T11:43:01.830Z,79.24
2023-02-18T11:44:35.750Z,79.27
2023-02-18T11:48:38.765Z,77.39
2023-02-18T11:53:01.599Z,77.83
2023-02-18T11:56:47.632Z,76.32
2023-02-18T11:58:46.152Z,75.89
2023-02-18T12:02:50.932Z,76.03
2023-02-18T12:04:50.232Z,75.77
2023-02-18T12:07:46.896Z,75.83
2023-02-18T12:09:26.105Z,75.78
2023-02-18T12:12:59.660Z,75.76
2023-02-18T12:14:57.536Z,75.59
2023-02-18T12:19:00.520Z,76.05
2023-02-18T12:21:44.539Z,76.3
2023-02-18T12:23:58.113Z,76.77
2023-02-18T12:25:06.150Z,76.91
2023-02-18T12:31:08.633Z,77.11
2023-02-18T12:33:10.044Z,77.21
2023-02-18T12:35:11.409Z,77.29
2023-02-18T12:37:13.144Z,77.14
2023-02-18T12:41:16.256Z,77.16
2023-02-18T12:43:17.655Z,77.13
2023-02-18T12:45:18.604Z,77.43
2023-02-18T12:47:20.029Z,76.9
2023-02-18T12:51:22.597Z,76.71
2023-02-18T12:53:23.678Z,76.65
2023-02-18T12:55:25.274Z,76.48
2023-02-18T12:57:26.247Z,76.42
2023-02-18T12:59:27.484Z,76.22
2023-02-18T13:01:29.139Z,76.34
2023-02-18T13:03:29.993Z,76.04
2023-02-18T13:05:31.735Z,76.1
2023-02-18T13:07:33.495Z,76.07
2023-02-18T13:09:34.911Z,76.19
2023-02-18T13:11:36.613Z,75.87
2023-02-18T13:13:38.379Z,75.76
2023-02-18T13:15:39.452Z,75
2023-02-18T13:17:40.596Z,75.71
2023-02-18T13:19:42.379Z,74.98
2023-02-18T13:21:43.699Z,75.51
2023-02-18T13:23:45.376Z,75.83
2023-02-18T13:25:46.575Z,76.34
2023-02-18T13:27:48.136Z,75.95
2023-02-18T13:29:49.708Z,75.49
2023-02-18T13:33:51.705Z,74.35
2023-02-18T13:35:53.157Z,75.11
2023-02-18T13:37:54.650Z,74.96
2023-02-18T13:39:55.565Z,75.43
2023-02-18T13:41:56.771Z,75.32
2023-02-18T13:43:57.875Z,74.85
2023-02-18T13:45:59.117Z,74.46
2023-02-18T13:48:00.305Z,73.13
2023-02-18T13:50:01.758Z,73.26
2023-02-18T13:52:13.292Z,72.89
2023-02-18T13:52:56.996Z,72.62
2023-02-18T13:54:58.076Z,71.89
2023-02-18T13:56:59.098Z,69.97
2023-02-18T14:01:02.091Z,69.4
2023-02-18T14:03:03.835Z,69.32
2023-02-18T14:05:05.313Z,70.5
2023-02-18T14:07:06.690Z,70.13
2023-02-18T14:11:09.576Z,70.48
2023-02-18T14:13:10.888Z,70.52
2023-02-18T14:15:12.287Z,70.51
2023-02-18T14:17:13.520Z,70.52
2023-02-18T14:19:14.544Z,71.13
2023-02-18T14:21:15.941Z,70.66
2023-02-18T14:23:17.664Z,71.1
2023-02-18T14:25:19.360Z,71.37
2023-02-18T14:27:20.232Z,71.74
2023-02-18T14:29:21.451Z,71.44
2023-02-18T14:31:29.731Z,72.09
2023-02-18T14:33:24.941Z,71.53
2023-02-18T14:35:26.565Z,72.19
2023-02-18T14:37:27.869Z,71.58
2023-02-18T14:39:28.920Z,71.7
2023-02-18T14:41:30.041Z,71.35
2023-02-18T14:43:31.156Z,71.33
2023-02-18T14:45:32.374Z,71.85
2023-02-18T14:47:33.351Z,72.24
2023-02-18T14:49:34.552Z,71.95
2023-02-18T14:53:37.717Z,72.14
2023-02-18T14:55:38.750Z,71.66
2023-02-18T14:57:40.022Z,71.47
2023-02-18T14:59:40.917Z,71.72
2023-02-18T15:01:42.195Z,72.22
2023-02-18T15:03:43.201Z,72
2023-02-18T15:05:44.781Z,72.15
2023-02-18T15:07:46.224Z,72.26
2023-02-18T15:09:48.062Z,72.03
2023-02-18T15:11:49.550Z,72.18
2023-02-18T15:13:50.851Z,71.87
2023-02-18T15:15:51.837Z,71.99
2023-02-18T15:17:53.317Z,72.08
2023-02-18T15:19:54.410Z,72.12
2023-02-18T15:21:55.884Z,72.6
2023-02-18T15:23:57.310Z,72.59
2023-02-18T15:25:59.115Z,72.83
2023-02-18T15:28:00.897Z,72.87
2023-02-18T15:30:02.539Z,73.15
2023-02-18T15:32:04.202Z,73.29
2023-02-18T15:36:06.533Z,73.78
2023-02-18T15:38:07.918Z,73.91
2023-02-18T15:40:09.344Z,73.94
2023-02-18T15:42:10.423Z,73.94
2023-02-18T15:44:11.432Z,73.99
2023-02-18T15:46:12.953Z,73.99
2023-02-18T15:48:14.533Z,73.73
2023-02-18T15:50:15.951Z,74.42
2023-02-18T15:52:17.107Z,74.47
2023-02-18T15:54:18.440Z,74.67
2023-02-18T15:56:19.806Z,74.49
2023-02-18T15:58:20.892Z,74.44
2023-02-18T16:00:21.839Z,74.8
2023-02-18T16:02:23.158Z,74.8
2023-02-18T16:04:24.402Z,74.79
2023-02-18T16:06:25.343Z,74.77
2023-02-18T16:08:26.419Z,74.76
2023-02-18T16:10:27.665Z,74.73
2023-02-18T16:12:29.473Z,74.84
2023-02-18T16:14:31.091Z,75
2023-02-18T16:16:32.886Z,75.37
2023-02-18T16:18:34.298Z,75.27
2023-02-18T16:20:35.573Z,75.52
2023-02-18T16:22:36.893Z,75.36
2023-02-18T16:24:38.553Z,75.55
2023-02-18T16:26:39.752Z,76.03
2023-02-18T16:28:41.106Z,76.18
2023-02-18T16:30:42.182Z,76.19
2023-02-18T16:34:45.076Z,76.89
2023-02-18T16:36:46.020Z,77.04
2023-02-18T16:38:47.245Z,77.12
2023-02-18T16:40:49.075Z,77.35
2023-02-18T16:42:50.584Z,77.63
2023-02-18T16:44:52.086Z,77.92
2023-02-18T16:46:53.015Z,78.07
2023-02-18T16:48:54.403Z,78.1
2023-02-18T16:50:55.306Z,78.16
2023-02-18T16:52:56.272Z,78.33
2023-02-18T16:54:57.780Z,78.59
2023-02-18T16:56:58.887Z,78.62
2023-02-18T16:58:59.919Z,78.72
2023-02-18T17:01:01.610Z,78.88
2023-02-18T17:03:03.023Z,79.03
2023-02-18T17:05:09.711Z,79.21
2023-02-18T17:07:05.437Z,79.41
2023-02-18T17:09:07.126Z,79.74
2023-02-18T17:11:08.941Z,79.69
2023-02-18T17:13:10.668Z,79.93
2023-02-18T17:15:12.331Z,79.99
2023-02-18T17:17:13.862Z,80.03
2023-02-18T17:19:14.924Z,80.07
2023-02-18T17:23:17.709Z,80.43
2023-02-18T17:25:19.274Z,80.28
2023-02-18T17:27:20.880Z,80.07
2023-02-18T17:29:22.504Z,80.29
2023-02-18T17:31:23.588Z,80.37
2023-02-18T17:33:24.777Z,80.5
2023-02-18T17:35:25.864Z,80.72
2023-02-18T17:37:26.976Z,80.61
2023-02-18T17:39:28.703Z,80.5
2023-02-18T17:41:29.877Z,80.61
2023-02-18T17:43:30.998Z,80.89
2023-02-18T17:45:32.308Z,80.95
2023-02-18T17:47:33.914Z,81.11
2023-02-18T17:49:35.128Z,81.22
2023-02-18T17:51:36.577Z,81.24
2023-02-18T17:53:37.957Z,81.37
2023-02-18T17:55:39.555Z,81.49
2023-02-18T17:57:41.375Z,81.58
2023-02-18T17:59:42.859Z,81.79
2023-02-18T18:01:44.038Z,81.98
2023-02-18T18:03:45.181Z,82.07
2023-02-18T18:05:48.680Z,81.93
2023-02-18T18:07:48.058Z,81.77
2023-02-18T18:09:49.852Z,81.92
2023-02-18T18:11:51.295Z,81.74
2023-02-18T18:15:55.755Z,81.86
2023-02-18T18:17:55.568Z,81.5
2023-02-18T18:19:56.568Z,81.6
2023-02-18T18:21:57.523Z,81.54
2023-02-18T18:23:59.392Z,81.42
2023-02-18T18:26:00.760Z,81.7
2023-02-18T18:28:02.392Z,81.6
2023-02-18T18:30:03.989Z,81.44
2023-02-18T18:32:05.243Z,81.36
2023-02-18T18:34:06.823Z,81.37
2023-02-18T18:36:08.069Z,81.58
2023-02-18T18:38:09.470Z,81.37
2023-02-18T18:40:10.665Z,81.41
2023-02-18T18:42:12.516Z,81.41
2023-02-18T18:44:13.572Z,81.4
2023-02-18T18:46:15.112Z,81.62
2023-02-18T18:48:16.084Z,81.7
2023-02-18T18:50:17.694Z,81.75
2023-02-18T18:52:18.960Z,81.73
2023-02-18T18:54:20.270Z,81.84
2023-02-18T18:58:22.381Z,81.73
2023-02-18T19:00:23.635Z,81.85
2023-02-18T19:02:25.035Z,81.87
2023-02-18T19:04:26.437Z,82.12
2023-02-18T19:06:27.750Z,81.68
2023-02-18T19:08:29.147Z,81.88
2023-02-18T19:10:30.470Z,82.06
2023-02-18T19:12:32.316Z,82.28
2023-02-18T19:14:33.576Z,82.32
2023-02-18T19:16:35.018Z,82.43
2023-02-18T19:18:36.527Z,82.34
2023-02-18T19:20:37.768Z,82.31
2023-02-18T19:22:38.843Z,82.18
2023-02-18T19:24:40.085Z,82.2
2023-02-18T19:26:41.640Z,82.36
2023-02-18T19:28:43.469Z,82.34
2023-02-18T19:30:44.486Z,82.36
2023-02-18T19:32:46.002Z,82.48
2023-02-18T19:34:47.635Z,82.59
2023-02-18T19:36:49.026Z,82.7
2023-02-18T19:38:49.967Z,82.8
2023-02-18T19:40:51.223Z,82.71
2023-02-18T19:42:52.123Z,82.75
2023-02-18T19:46:54.631Z,82.51
2023-02-18T19:48:55.865Z,82.75
2023-02-18T19:50:57.083Z,82.58
2023-02-18T19:52:58.936Z,82.74
2023-02-18T19:57:01.990Z,82.47
2023-02-18T19:59:03.429Z,82.36
2023-02-18T20:01:04.347Z,82.18
2023-02-18T20:03:05.258Z,82.38
2023-02-18T20:05:07.081Z,82.47
2023-02-18T20:07:08.562Z,82.24
2023-02-18T20:09:09.850Z,82.24
2023-02-18T20:11:11.927Z,82.4
2023-02-18T20:13:13.227Z,82.14
2023-02-18T20:15:15.031Z,82.01
2023-02-18T20:17:16.945Z,82.16
2023-02-18T20:19:17.874Z,82.02
2023-02-18T20:21:18.967Z,82
2023-02-18T20:23:20.653Z,81.91
2023-02-18T20:25:22.227Z,82.11
2023-02-18T20:27:23.165Z,82.39
2023-02-18T20:29:24.545Z,82.24
2023-02-18T20:31:25.694Z,82.33
2023-02-18T20:33:26.636Z,82.27
2023-02-18T20:35:28.474Z,82.06
2023-02-18T20:38:13.863Z,82.16
2023-02-18T20:40:15.489Z,82.19
2023-02-18T20:42:17.363Z,82.13
2023-02-18T20:44:18.616Z,82.34
2023-02-18T20:46:19.885Z,82.46
2023-02-18T20:48:21.120Z,82.44
2023-02-18T20:50:22.278Z,82.52
2023-02-18T20:52:23.238Z,82.59
2023-02-18T20:54:24.764Z,82.72
2023-02-18T20:56:25.867Z,82.8
2023-02-18T20:58:27.030Z,82.86
2023-02-18T21:00:28.722Z,82.98
2023-02-18T21:02:29.939Z,82.92
2023-02-18T21:06:32.843Z,82.91
2023-02-18T21:08:33.934Z,83.02
2023-02-18T21:10:34.956Z,82.88
2023-02-18T21:12:36.562Z,83.14
2023-02-18T21:16:39.000Z,83.29
2023-02-18T21:18:39.977Z,83.1
2023-02-18T21:22:43.382Z,82.87
2023-02-18T21:24:44.800Z,83.06
2023-02-18T21:26:45.842Z,83.16
2023-02-18T21:28:46.999Z,82.9
2023-02-18T21:32:49.007Z,83.05
2023-02-18T21:34:50.195Z,83.07
2023-02-18T21:36:51.423Z,83.2
2023-02-18T21:38:52.631Z,83.13
2023-02-18T21:40:54.193Z,83.04
2023-02-18T21:42:55.673Z,83.2
2023-02-18T21:44:56.602Z,83.08
2023-02-18T21:46:58.453Z,82.86
2023-02-18T21:48:59.833Z,83.08
2023-02-18T21:51:00.931Z,83.08
2023-02-18T21:53:02.608Z,83.19
2023-02-18T21:55:03.848Z,82.96
2023-02-18T21:57:05.593Z,82.98
2023-02-18T21:59:06.574Z,83.15
2023-02-18T22:01:07.799Z,83.18
2023-02-18T22:03:08.774Z,83.21
2023-02-18T22:05:10.584Z,83.06
2023-02-18T22:07:12.370Z,83.29
2023-02-18T22:09:14.049Z,83.28
2023-02-18T22:11:15.394Z,83.26
2023-02-18T22:15:18.608Z,84.49
2023-02-18T22:17:20.300Z,85.5
2023-02-18T22:19:22.129Z,85.29
2023-02-18T22:21:23.101Z,86.32
2023-02-18T22:23:24.057Z,86.36
2023-02-18T22:25:25.826Z,86.29
2023-02-18T22:27:27.563Z,85.99
2023-02-18T22:29:29.322Z,85.86
2023-02-18T22:31:30.718Z,86.4
2023-02-18T22:33:31.922Z,85.97
2023-02-18T22:35:33.625Z,85.36
2023-02-18T22:37:34.619Z,85.37
2023-02-18T22:39:36.042Z,85.58
2023-02-18T22:41:37.948Z,85.52
2023-02-18T22:43:39.879Z,85.36
2023-02-18T22:45:40.932Z,85.74
2023-02-18T22:47:42.082Z,86.15
2023-02-18T22:49:43.305Z,86.33
2023-02-18T22:51:44.478Z,86.61
2023-02-18T22:53:46.052Z,86.53
2023-02-18T22:57:48.676Z,86.86
2023-02-18T22:59:50.435Z,86.89
2023-02-18T23:01:51.515Z,87.2
2023-02-18T23:03:52.618Z,87.32
2023-02-18T23:05:53.963Z,87.21
2023-02-18T23:07:55.704Z,87.27
2023-02-18T23:09:56.616Z,87.4
2023-02-18T23:11:57.801Z,87.61
2023-02-18T23:13:58.949Z,87.61
2023-02-18T23:16:00.138Z,87.94
2023-02-18T23:18:01.837Z,88.51
2023-02-18T23:20:02.909Z,88.96
2023-02-18T23:22:04.346Z,89.07
2023-02-18T23:24:05.613Z,89.01
2023-02-18T23:26:07.354Z,89.24
2023-02-18T23:28:09.183Z,89.27
2023-02-18T23:30:19.984Z,89.22
2023-02-18T23:32:12.081Z,89.24
2023-02-18T23:34:13.602Z,88.82
2023-02-18T23:36:15.109Z,88.62
2023-02-18T23:38:16.882Z,88.61
2023-02-18T23:40:17.924Z,88.33
2023-02-18T23:42:18.958Z,88.26
2023-02-18T23:46:22.222Z,88.39
2023-02-18T23:48:23.423Z,88.52
2023-02-18T23:50:24.837Z,88.12
2023-02-18T23:52:25.916Z,88.81
2023-02-18T23:56:28.904Z,90.89
2023-02-18T23:58:30.247Z,91.49
